sensor_id;sensor_type;location;lat;lon;timestamp;pressure;altitude;pressure_sealevel;temperature;humidity
10978;BME280;5542;48.272;10.794;2022-09-17T00:00:39;95238.56;;;11.09;79.07
10978;BME280;5542;48.272;10.794;2022-09-17T00:03:06;95237.94;;;11.02;79.02
10978;BME280;5542;48.272;10.794;2022-09-17T00:05:36;95240.81;;;11.00;78.96
10978;BME280;5542;48.272;10.794;2022-09-17T00:08:03;95247.03;;;10.94;79.50
10978;BME280;5542;48.272;10.794;2022-09-17T00:10:32;95242.56;;;10.95;79.97
10978;BME280;5542;48.272;10.794;2022-09-17T00:13:10;95249.81;;;11.05;79.76
10978;BME280;5542;48.272;10.794;2022-09-17T00:15:39;95245.13;;;11.07;79.38
10978;BME280;5542;48.272;10.794;2022-09-17T00:18:06;95242.38;;;11.18;78.69
10978;BME280;5542;48.272;10.794;2022-09-17T00:20:37;95254.34;;;11.09;79.26
10978;BME280;5542;48.272;10.794;2022-09-17T00:23:03;95254.81;;;11.06;79.50
10978;BME280;5542;48.272;10.794;2022-09-17T00:25:30;95256.06;;;10.98;80.00
10978;BME280;5542;48.272;10.794;2022-09-17T00:27:56;95259.69;;;11.14;79.25
10978;BME280;5542;48.272;10.794;2022-09-17T00:30:24;95251.09;;;11.02;79.70
10978;BME280;5542;48.272;10.794;2022-09-17T00:32:51;95246.84;;;11.01;80.10
10978;BME280;5542;48.272;10.794;2022-09-17T00:35:17;95249.28;;;11.02;79.50
10978;BME280;5542;48.272;10.794;2022-09-17T00:37:44;95251.84;;;10.97;79.74
10978;BME280;5542;48.272;10.794;2022-09-17T00:40:11;95260.66;;;10.91;80.24
10978;BME280;5542;48.272;10.794;2022-09-17T00:42:37;95257.03;;;10.92;80.45
10978;BME280;5542;48.272;10.794;2022-09-17T00:45:04;95251.50;;;10.94;80.37
10978;BME280;5542;48.272;10.794;2022-09-17T00:47:34;95248.94;;;10.99;79.73
10978;BME280;5542;48.272;10.794;2022-09-17T00:50:05;95254.22;;;10.99;80.04
10978;BME280;5542;48.272;10.794;2022-09-17T00:52:36;95249.59;;;10.89;80.33
10978;BME280;5542;48.272;10.794;2022-09-17T00:55:10;95260.38;;;10.88;81.04
10978;BME280;5542;48.272;10.794;2022-09-17T00:57:38;95258.34;;;10.95;80.52
10978;BME280;5542;48.272;10.794;2022-09-17T01:00:07;95245.94;;;10.90;80.76
10978;BME280;5542;48.272;10.794;2022-09-17T01:02:35;95247.22;;;10.88;81.20
10978;BME280;5542;48.272;10.794;2022-09-17T01:05:02;95251.44;;;10.89;80.89
10978;BME280;5542;48.272;10.794;2022-09-17T01:07:47;95240.53;;;10.80;81.04
10978;BME280;5542;48.272;10.794;2022-09-17T01:10:30;95245.38;;;10.71;81.17
10978;BME280;5542;48.272;10.794;2022-09-17T01:13:07;95248.03;;;10.71;81.49
10978;BME280;5542;48.272;10.794;2022-09-17T01:15:41;95257.28;;;10.74;81.24
10978;BME280;5542;48.272;10.794;2022-09-17T01:18:22;95250.91;;;10.70;81.21
10978;BME280;5542;48.272;10.794;2022-09-17T01:21:17;95252.09;;;10.62;81.63
10978;BME280;5542;48.272;10.794;2022-09-17T01:24:16;95248.41;;;10.63;82.03
10978;BME280;5542;48.272;10.794;2022-09-17T01:30:27;95255.59;;;10.68;81.97
10978;BME280;5542;48.272;10.794;2022-09-17T01:33:01;95257.81;;;10.76;81.90
10978;BME280;5542;48.272;10.794;2022-09-17T01:35:36;95253.59;;;10.75;81.86
10978;BME280;5542;48.272;10.794;2022-09-17T01:38:11;95256.69;;;10.72;81.88
10978;BME280;5542;48.272;10.794;2022-09-17T01:40:46;95253.84;;;10.73;81.63
10978;BME280;5542;48.272;10.794;2022-09-17T01:43:19;95267.78;;;10.74;82.12
10978;BME280;5542;48.272;10.794;2022-09-17T01:45:51;95265.38;;;10.89;80.97
10978;BME280;5542;48.272;10.794;2022-09-17T01:48:19;95268.84;;;10.73;81.05
10978;BME280;5542;48.272;10.794;2022-09-17T01:50:48;95264.31;;;10.68;81.50
10978;BME280;5542;48.272;10.794;2022-09-17T01:53:19;95275.03;;;10.67;81.47
10978;BME280;5542;48.272;10.794;2022-09-17T01:55:50;95277.59;;;10.79;80.58
10978;BME280;5542;48.272;10.794;2022-09-17T01:58:21;95273.22;;;10.84;79.31
10978;BME280;5542;48.272;10.794;2022-09-17T02:00:54;95271.28;;;10.80;79.80
10978;BME280;5542;48.272;10.794;2022-09-17T02:03:25;95273.06;;;10.74;80.72
10978;BME280;5542;48.272;10.794;2022-09-17T02:05:58;95267.31;;;10.77;80.76
10978;BME280;5542;48.272;10.794;2022-09-17T02:08:29;95262.63;;;10.79;80.52
10978;BME280;5542;48.272;10.794;2022-09-17T02:11:05;95267.00;;;10.73;80.76
10978;BME280;5542;48.272;10.794;2022-09-17T02:13:36;95269.38;;;10.75;80.43
10978;BME280;5542;48.272;10.794;2022-09-17T02:16:08;95274.56;;;10.70;80.52
10978;BME280;5542;48.272;10.794;2022-09-17T02:18:41;95271.94;;;10.70;79.86
10978;BME280;5542;48.272;10.794;2022-09-17T02:21:13;95272.56;;;10.77;80.05
10978;BME280;5542;48.272;10.794;2022-09-17T02:23:46;95273.22;;;10.84;79.83
10978;BME280;5542;48.272;10.794;2022-09-17T02:26:17;95267.00;;;10.73;80.42
10978;BME280;5542;48.272;10.794;2022-09-17T02:28:47;95270.66;;;10.72;80.70
10978;BME280;5542;48.272;10.794;2022-09-17T02:31:16;95268.00;;;10.72;79.39
10978;BME280;5542;48.272;10.794;2022-09-17T02:33:47;95271.03;;;10.81;78.84
10978;BME280;5542;48.272;10.794;2022-09-17T02:36:15;95269.38;;;10.75;79.05
10978;BME280;5542;48.272;10.794;2022-09-17T02:38:44;95265.56;;;10.66;79.41
10978;BME280;5542;48.272;10.794;2022-09-17T02:41:16;95255.44;;;10.58;79.12
10978;BME280;5542;48.272;10.794;2022-09-17T02:43:51;95245.31;;;10.66;79.04
10978;BME280;5542;48.272;10.794;2022-09-17T02:46:37;95240.94;;;10.55;78.56
10978;BME280;5542;48.272;10.794;2022-09-17T02:49:18;95247.06;;;10.61;79.00
10978;BME280;5542;48.272;10.794;2022-09-17T02:51:55;95244.69;;;10.59;78.55
10978;BME280;5542;48.272;10.794;2022-09-17T02:54:28;95233.78;;;10.50;78.50
10978;BME280;5542;48.272;10.794;2022-09-17T02:57:06;95235.75;;;10.43;79.26
10978;BME280;5542;48.272;10.794;2022-09-17T02:59:39;95233.38;;;10.42;79.11
10978;BME280;5542;48.272;10.794;2022-09-17T03:02:15;95233.28;;;10.54;77.94
10978;BME280;5542;48.272;10.794;2022-09-17T03:04:43;95233.91;;;10.44;78.41
10978;BME280;5542;48.272;10.794;2022-09-17T03:07:12;95239.66;;;10.41;78.84
10978;BME280;5542;48.272;10.794;2022-09-17T03:09:40;95243.25;;;10.51;77.76
10978;BME280;5542;48.272;10.794;2022-09-17T03:12:08;95232.00;;;10.39;78.34
10978;BME280;5542;48.272;10.794;2022-09-17T03:14:34;95240.13;;;10.38;79.07
10978;BME280;5542;48.272;10.794;2022-09-17T03:17:01;95239.16;;;10.44;78.86
10978;BME280;5542;48.272;10.794;2022-09-17T03:19:29;95229.06;;;10.52;77.55
10978;BME280;5542;48.272;10.794;2022-09-17T03:21:55;95234.00;;;10.49;77.28
10978;BME280;5542;48.272;10.794;2022-09-17T03:24:22;95226.53;;;10.41;78.11
10978;BME280;5542;48.272;10.794;2022-09-17T03:26:48;95230.59;;;10.32;77.91
10978;BME280;5542;48.272;10.794;2022-09-17T03:29:16;95237.03;;;10.41;77.66
10978;BME280;5542;48.272;10.794;2022-09-17T03:31:42;95228.81;;;10.37;76.49
10978;BME280;5542;48.272;10.794;2022-09-17T03:34:09;95231.41;;;10.20;77.77
10978;BME280;5542;48.272;10.794;2022-09-17T03:36:37;95234.75;;;10.16;78.32
10978;BME280;5542;48.272;10.794;2022-09-17T03:39:03;95219.63;;;10.23;78.09
10978;BME280;5542;48.272;10.794;2022-09-17T03:41:30;95221.72;;;10.21;78.00
10978;BME280;5542;48.272;10.794;2022-09-17T03:43:57;95226.78;;;10.11;78.64
10978;BME280;5542;48.272;10.794;2022-09-17T03:46:23;95232.03;;;10.11;78.88
10978;BME280;5542;48.272;10.794;2022-09-17T03:48:50;95229.88;;;10.08;78.84
10978;BME280;5542;48.272;10.794;2022-09-17T03:51:16;95227.88;;;9.98;79.43
10978;BME280;5542;48.272;10.794;2022-09-17T03:53:44;95225.88;;;10.05;79.14
10978;BME280;5542;48.272;10.794;2022-09-17T03:56:11;95230.44;;;10.10;78.66
10978;BME280;5542;48.272;10.794;2022-09-17T03:58:37;95230.22;;;10.11;78.81
10978;BME280;5542;48.272;10.794;2022-09-17T04:01:04;95229.41;;;10.11;78.63
10978;BME280;5542;48.272;10.794;2022-09-17T04:03:31;95236.19;;;10.07;78.79
10978;BME280;5542;48.272;10.794;2022-09-17T04:05:58;95232.66;;;10.01;79.00
10978;BME280;5542;48.272;10.794;2022-09-17T04:08:24;95233.56;;;10.07;78.40
10978;BME280;5542;48.272;10.794;2022-09-17T04:10:53;95227.19;;;10.03;78.05
10978;BME280;5542;48.272;10.794;2022-09-17T04:13:19;95233.06;;;9.93;78.98
10978;BME280;5542;48.272;10.794;2022-09-17T04:15:46;95224.56;;;10.03;78.15
10978;BME280;5542;48.272;10.794;2022-09-17T04:18:13;95231.75;;;9.95;78.93
10978;BME280;5542;48.272;10.794;2022-09-17T04:20:40;95232.00;;;9.94;78.98
10978;BME280;5542;48.272;10.794;2022-09-17T04:23:08;95224.56;;;10.03;78.14
10978;BME280;5542;48.272;10.794;2022-09-17T04:25:35;95232.34;;;9.97;78.55
10978;BME280;5542;48.272;10.794;2022-09-17T04:28:03;95237.91;;;10.01;77.85
10978;BME280;5542;48.272;10.794;2022-09-17T04:30:29;95230.97;;;9.95;78.50
10978;BME280;5542;48.272;10.794;2022-09-17T04:32:56;95243.66;;;9.98;78.48
10978;BME280;5542;48.272;10.794;2022-09-17T04:35:22;95241.03;;;9.98;78.35
10978;BME280;5542;48.272;10.794;2022-09-17T04:37:53;95237.03;;;9.95;78.57
10978;BME280;5542;48.272;10.794;2022-09-17T04:40:20;95238.91;;;9.83;78.56
10978;BME280;5542;48.272;10.794;2022-09-17T04:42:46;95244.56;;;9.92;78.26
10978;BME280;5542;48.272;10.794;2022-09-17T04:45:15;95239.38;;;9.80;78.91
10978;BME280;5542;48.272;10.794;2022-09-17T04:47:41;95244.63;;;9.80;79.65
10978;BME280;5542;48.272;10.794;2022-09-17T04:50:08;95245.19;;;9.82;79.73
10978;BME280;5542;48.272;10.794;2022-09-17T04:52:35;95248.75;;;10.05;77.90
10978;BME280;5542;48.272;10.794;2022-09-17T04:55:02;95244.78;;;10.02;77.62
10978;BME280;5542;48.272;10.794;2022-09-17T04:57:28;95240.13;;;9.92;78.10
10978;BME280;5542;48.272;10.794;2022-09-17T04:59:55;95244.25;;;9.88;78.25
10978;BME280;5542;48.272;10.794;2022-09-17T05:02:23;95242.66;;;9.87;77.86
10978;BME280;5542;48.272;10.794;2022-09-17T05:04:49;95238.59;;;9.80;77.97
10978;BME280;5542;48.272;10.794;2022-09-17T05:07:16;95243.59;;;9.81;77.92
10978;BME280;5542;48.272;10.794;2022-09-17T05:09:42;95244.28;;;9.77;78.10
10978;BME280;5542;48.272;10.794;2022-09-17T05:12:09;95243.59;;;9.81;78.07
10978;BME280;5542;48.272;10.794;2022-09-17T05:14:35;95254.38;;;9.68;78.74
10978;BME280;5542;48.272;10.794;2022-09-17T05:17:02;95258.28;;;9.54;79.67
10978;BME280;5542;48.272;10.794;2022-09-17T05:19:30;95257.50;;;9.53;79.95
10978;BME280;5542;48.272;10.794;2022-09-17T05:21:56;95264.13;;;9.56;80.12
10978;BME280;5542;48.272;10.794;2022-09-17T05:24:23;95277.59;;;9.59;80.09
10978;BME280;5542;48.272;10.794;2022-09-17T05:26:49;95279.88;;;9.56;79.76
10978;BME280;5542;48.272;10.794;2022-09-17T05:29:16;95285.03;;;9.51;80.30
10978;BME280;5542;48.272;10.794;2022-09-17T05:31:42;95285.03;;;9.51;80.58
10978;BME280;5542;48.272;10.794;2022-09-17T05:34:09;95296.97;;;9.58;80.50
10978;BME280;5542;48.272;10.794;2022-09-17T05:36:37;95307.97;;;9.55;80.34
10978;BME280;5542;48.272;10.794;2022-09-17T05:39:03;95321.53;;;9.52;80.32
10978;BME280;5542;48.272;10.794;2022-09-17T05:41:30;95327.72;;;9.46;80.96
10978;BME280;5542;48.272;10.794;2022-09-17T05:43:56;95325.66;;;9.48;81.34
10978;BME280;5542;48.272;10.794;2022-09-17T05:46:23;95343.09;;;9.54;81.52
10978;BME280;5542;48.272;10.794;2022-09-17T05:48:49;95352.09;;;9.70;80.55
10978;BME280;5542;48.272;10.794;2022-09-17T05:51:16;95354.50;;;9.71;80.27
10978;BME280;5542;48.272;10.794;2022-09-17T05:53:44;95351.84;;;9.83;78.65
10978;BME280;5542;48.272;10.794;2022-09-17T05:56:11;95350.13;;;9.77;78.80
10978;BME280;5542;48.272;10.794;2022-09-17T05:58:37;95358.59;;;9.67;79.68
10978;BME280;5542;48.272;10.794;2022-09-17T06:01:04;95368.91;;;9.69;80.20
10978;BME280;5542;48.272;10.794;2022-09-17T06:03:31;95370.94;;;9.79;79.80
10978;BME280;5542;48.272;10.794;2022-09-17T06:05:58;95377.78;;;9.80;79.95
10978;BME280;5542;48.272;10.794;2022-09-17T06:08:26;95381.44;;;9.79;80.20
10978;BME280;5542;48.272;10.794;2022-09-17T06:10:54;95385.91;;;9.78;80.41
10978;BME280;5542;48.272;10.794;2022-09-17T06:13:21;95391.72;;;9.80;80.87
10978;BME280;5542;48.272;10.794;2022-09-17T06:15:48;95394.88;;;9.94;80.84
10978;BME280;5542;48.272;10.794;2022-09-17T06:18:15;95391.22;;;9.95;80.41
10978;BME280;5542;48.272;10.794;2022-09-17T06:20:41;95393.59;;;9.96;80.27
10978;BME280;5542;48.272;10.794;2022-09-17T06:23:08;95394.63;;;10.07;78.68
10978;BME280;5542;48.272;10.794;2022-09-17T06:25:35;95396.06;;;10.15;78.76
10978;BME280;5542;48.272;10.794;2022-09-17T06:28:03;95392.22;;;10.06;79.12
10978;BME280;5542;48.272;10.794;2022-09-17T06:30:30;95401.44;;;10.20;78.02
10978;BME280;5542;48.272;10.794;2022-09-17T06:32:58;95400.56;;;10.03;79.05
10978;BME280;5542;48.272;10.794;2022-09-17T06:35:25;95406.53;;;9.98;79.87
10978;BME280;5542;48.272;10.794;2022-09-17T06:37:51;95402.84;;;9.99;80.37
10978;BME280;5542;48.272;10.794;2022-09-17T06:40:18;95413.47;;;10.04;80.66
10978;BME280;5542;48.272;10.794;2022-09-17T06:42:47;95419.16;;;10.13;80.03
10978;BME280;5542;48.272;10.794;2022-09-17T06:45:15;95415.03;;;10.29;77.66
10978;BME280;5542;48.272;10.794;2022-09-17T06:47:42;95422.69;;;10.18;78.81
10978;BME280;5542;48.272;10.794;2022-09-17T06:50:08;95422.13;;;10.16;78.82
10978;BME280;5542;48.272;10.794;2022-09-17T06:52:35;95423.94;;;10.16;79.08
10978;BME280;5542;48.272;10.794;2022-09-17T06:55:03;95430.34;;;10.20;77.95
10978;BME280;5542;48.272;10.794;2022-09-17T06:57:30;95432.31;;;10.13;78.07
10978;BME280;5542;48.272;10.794;2022-09-17T06:59:56;95432.63;;;10.28;78.08
10978;BME280;5542;48.272;10.794;2022-09-17T07:02:24;95436.88;;;10.17;78.55
10978;BME280;5542;48.272;10.794;2022-09-17T07:04:50;95427.56;;;10.38;77.71
10978;BME280;5542;48.272;10.794;2022-09-17T07:07:19;95416.97;;;10.33;76.86
10978;BME280;5542;48.272;10.794;2022-09-17T07:09:45;95422.56;;;10.25;77.42
10978;BME280;5542;48.272;10.794;2022-09-17T07:12:12;95426.31;;;10.41;76.48
10978;BME280;5542;48.272;10.794;2022-09-17T07:14:39;95425.19;;;10.25;77.19
10978;BME280;5542;48.272;10.794;2022-09-17T07:17:05;95422.00;;;10.23;77.89
10978;BME280;5542;48.272;10.794;2022-09-17T07:19:33;95430.00;;;10.28;78.22
10978;BME280;5542;48.272;10.794;2022-09-17T07:21:59;95428.50;;;10.32;78.87
10978;BME280;5542;48.272;10.794;2022-09-17T07:24:26;95425.53;;;10.40;77.94
10978;BME280;5542;48.272;10.794;2022-09-17T07:26:52;95430.97;;;10.50;78.01
10978;BME280;5542;48.272;10.794;2022-09-17T07:29:19;95432.56;;;10.80;74.80
10978;BME280;5542;48.272;10.794;2022-09-17T07:31:47;95426.75;;;10.78;75.46
10978;BME280;5542;48.272;10.794;2022-09-17T07:34:14;95428.88;;;10.81;77.12
10978;BME280;5542;48.272;10.794;2022-09-17T07:36:43;95432.91;;;11.00;76.51
10978;BME280;5542;48.272;10.794;2022-09-17T07:39:10;95427.09;;;11.15;74.44
10978;BME280;5542;48.272;10.794;2022-09-17T07:41:37;95423.28;;;11.23;74.66
10978;BME280;5542;48.272;10.794;2022-09-17T07:44:04;95427.72;;;11.39;73.24
10978;BME280;5542;48.272;10.794;2022-09-17T07:46:32;95425.81;;;11.51;72.91
10978;BME280;5542;48.272;10.794;2022-09-17T07:48:59;95418.75;;;11.74;68.66
10978;BME280;5542;48.272;10.794;2022-09-17T07:51:26;95421.34;;;12.08;68.17
10978;BME280;5542;48.272;10.794;2022-09-17T07:53:55;95423.53;;;12.38;70.32
10978;BME280;5542;48.272;10.794;2022-09-17T07:56:24;95417.19;;;12.61;68.92
10978;BME280;5542;48.272;10.794;2022-09-17T07:58:51;95417.06;;;12.72;68.63
10978;BME280;5542;48.272;10.794;2022-09-17T08:01:18;95409.25;;;12.82;65.42
10978;BME280;5542;48.272;10.794;2022-09-17T08:03:47;95404.72;;;12.78;66.22
10978;BME280;5542;48.272;10.794;2022-09-17T08:06:16;95409.00;;;12.84;62.82
10978;BME280;5542;48.272;10.794;2022-09-17T08:08:43;95402.22;;;12.66;64.46
10978;BME280;5542;48.272;10.794;2022-09-17T08:11:13;95399.69;;;12.49;65.50
10978;BME280;5542;48.272;10.794;2022-09-17T08:13:40;95405.25;;;12.53;65.99
10978;BME280;5542;48.272;10.794;2022-09-17T08:16:10;95394.34;;;12.44;65.25
10978;BME280;5542;48.272;10.794;2022-09-17T08:18:38;95402.66;;;12.31;66.65
10978;BME280;5542;48.272;10.794;2022-09-17T08:21:06;95397.09;;;12.54;65.52
10978;BME280;5542;48.272;10.794;2022-09-17T08:23:34;95384.72;;;12.82;66.95
10978;BME280;5542;48.272;10.794;2022-09-17T08:26:01;95383.59;;;13.10;64.17
10978;BME280;5542;48.272;10.794;2022-09-17T08:28:30;95384.88;;;13.29;62.48
10978;BME280;5542;48.272;10.794;2022-09-17T08:30:59;95379.44;;;13.19;62.94
10978;BME280;5542;48.272;10.794;2022-09-17T08:33:29;95382.91;;;12.88;62.62
10978;BME280;5542;48.272;10.794;2022-09-17T08:35:56;95386.75;;;12.75;63.97
10978;BME280;5542;48.272;10.794;2022-09-17T08:38:24;95383.97;;;12.60;64.30
10978;BME280;5542;48.272;10.794;2022-09-17T08:40:59;95388.50;;;12.42;66.59
10978;BME280;5542;48.272;10.794;2022-09-17T08:43:32;95384.97;;;12.53;66.44
10978;BME280;5542;48.272;10.794;2022-09-17T08:46:01;95385.06;;;12.64;65.55
10978;BME280;5542;48.272;10.794;2022-09-17T08:48:33;95390.13;;;12.70;65.52
10978;BME280;5542;48.272;10.794;2022-09-17T08:51:05;95387.13;;;12.62;64.00
10978;BME280;5542;48.272;10.794;2022-09-17T08:53:56;95384.59;;;12.72;68.95
10978;BME280;5542;48.272;10.794;2022-09-17T08:56:28;95397.38;;;13.12;66.70
10978;BME280;5542;48.272;10.794;2022-09-17T08:59:12;95391.59;;;13.52;64.58
10978;BME280;5542;48.272;10.794;2022-09-17T09:01:44;95393.66;;;13.82;62.16
10978;BME280;5542;48.272;10.794;2022-09-17T09:04:29;95389.78;;;14.05;59.94
10978;BME280;5542;48.272;10.794;2022-09-17T09:07:02;95405.50;;;13.80;60.06
10978;BME280;5542;48.272;10.794;2022-09-17T09:09:35;95411.78;;;13.64;60.37
10978;BME280;5542;48.272;10.794;2022-09-17T09:12:06;95405.50;;;13.38;62.26
10978;BME280;5542;48.272;10.794;2022-09-17T09:14:43;95422.66;;;13.35;61.94
10978;BME280;5542;48.272;10.794;2022-09-17T09:17:17;95415.41;;;12.93;60.93
10978;BME280;5542;48.272;10.794;2022-09-17T09:19:47;95413.13;;;12.75;63.22
10978;BME280;5542;48.272;10.794;2022-09-17T09:25:19;95435.00;;;12.48;63.30
10978;BME280;5542;48.272;10.794;2022-09-17T09:27:55;95439.88;;;12.35;64.85
10978;BME280;5542;48.272;10.794;2022-09-17T09:30:31;95445.38;;;12.11;65.72
10978;BME280;5542;48.272;10.794;2022-09-17T09:33:08;95442.19;;;12.09;65.54
10978;BME280;5542;48.272;10.794;2022-09-17T09:35:40;95439.22;;;12.05;66.56
10978;BME280;5542;48.272;10.794;2022-09-17T09:38:14;95443.41;;;12.01;67.21
10978;BME280;5542;48.272;10.794;2022-09-17T09:40:47;95440.22;;;11.99;66.85
10978;BME280;5542;48.272;10.794;2022-09-17T09:43:19;95443.03;;;11.93;67.71
10978;BME280;5542;48.272;10.794;2022-09-17T09:46:04;95449.03;;;11.88;68.41
10978;BME280;5542;48.272;10.794;2022-09-17T09:48:42;95452.50;;;11.77;68.99
10978;BME280;5542;48.272;10.794;2022-09-17T09:51:19;95461.63;;;11.69;69.93
10978;BME280;5542;48.272;10.794;2022-09-17T09:54:00;95475.84;;;11.68;71.10
10978;BME280;5542;48.272;10.794;2022-09-17T09:56:41;95468.75;;;11.69;70.19
10978;BME280;5542;48.272;10.794;2022-09-17T09:59:12;95470.97;;;11.60;70.75
10978;BME280;5542;48.272;10.794;2022-09-17T10:01:41;95485.34;;;11.52;72.01
10978;BME280;5542;48.272;10.794;2022-09-17T10:04:15;95489.34;;;11.55;72.85
10978;BME280;5542;48.272;10.794;2022-09-17T10:06:43;95485.50;;;11.46;70.59
10978;BME280;5542;48.272;10.794;2022-09-17T10:09:12;95495.09;;;11.35;70.75
10978;BME280;5542;48.272;10.794;2022-09-17T10:11:39;95489.47;;;11.15;71.36
10978;BME280;5542;48.272;10.794;2022-09-17T10:14:23;95478.59;;;10.94;73.63
10978;BME280;5542;48.272;10.794;2022-09-17T10:17:09;95482.44;;;11.03;74.31
10978;BME280;5542;48.272;10.794;2022-09-17T10:19:36;95481.22;;;10.94;74.59
10978;BME280;5542;48.272;10.794;2022-09-17T10:22:24;95474.56;;;10.92;76.18
10978;BME280;5542;48.272;10.794;2022-09-17T10:24:52;95481.97;;;11.07;77.00
10978;BME280;5542;48.272;10.794;2022-09-17T10:27:20;95483.66;;;11.13;77.27
10978;BME280;5542;48.272;10.794;2022-09-17T10:29:50;95484.84;;;11.22;78.39
10978;BME280;5542;48.272;10.794;2022-09-17T10:32:21;95477.38;;;11.31;78.47
10978;BME280;5542;48.272;10.794;2022-09-17T10:34:58;95476.88;;;11.34;78.39
10978;BME280;5542;48.272;10.794;2022-09-17T10:37:41;95479.44;;;11.45;75.24
10978;BME280;5542;48.272;10.794;2022-09-17T10:40:26;95475.94;;;11.40;75.54
10978;BME280;5542;48.272;10.794;2022-09-17T10:43:21;95473.53;;;11.38;77.49
10978;BME280;5542;48.272;10.794;2022-09-17T10:45:57;95472.97;;;11.53;77.23
10978;BME280;5542;48.272;10.794;2022-09-17T10:48:29;95477.13;;;11.49;76.74
10978;BME280;5542;48.272;10.794;2022-09-17T10:50:57;95474.00;;;11.52;76.37
10978;BME280;5542;48.272;10.794;2022-09-17T10:53:26;95463.81;;;11.56;75.31
10978;BME280;5542;48.272;10.794;2022-09-17T10:56:00;95469.31;;;11.54;75.49
10978;BME280;5542;48.272;10.794;2022-09-17T10:58:42;95472.75;;;11.54;76.38
10978;BME280;5542;48.272;10.794;2022-09-17T11:01:26;95460.34;;;11.72;75.98
10978;BME280;5542;48.272;10.794;2022-09-17T11:04:13;95467.94;;;11.51;75.87
10978;BME280;5542;48.272;10.794;2022-09-17T11:06:59;95461.16;;;11.56;75.17
10978;BME280;5542;48.272;10.794;2022-09-17T11:09:42;95456.63;;;11.51;74.70
10978;BME280;5542;48.272;10.794;2022-09-17T11:12:18;95462.13;;;11.49;75.56
10978;BME280;5542;48.272;10.794;2022-09-17T11:14:51;95464.69;;;11.44;74.82
10978;BME280;5542;48.272;10.794;2022-09-17T11:17:40;95465.22;;;11.46;76.09
10978;BME280;5542;48.272;10.794;2022-09-17T11:20:19;95450.63;;;11.56;75.41
10978;BME280;5542;48.272;10.794;2022-09-17T11:22:56;95445.75;;;11.64;76.25
10978;BME280;5542;48.272;10.794;2022-09-17T11:25:40;95448.06;;;11.61;77.38
10978;BME280;5542;48.272;10.794;2022-09-17T11:28:25;95448.69;;;11.68;76.72
10978;BME280;5542;48.272;10.794;2022-09-17T11:31:03;95454.66;;;11.80;74.75
10978;BME280;5542;48.272;10.794;2022-09-17T11:33:56;95452.63;;;11.82;76.57
10978;BME280;5542;48.272;10.794;2022-09-17T11:36:33;95456.25;;;11.81;74.25
10978;BME280;5542;48.272;10.794;2022-09-17T11:39:09;95445.41;;;11.94;73.71
10978;BME280;5542;48.272;10.794;2022-09-17T11:41:41;95444.75;;;12.04;72.59
10978;BME280;5542;48.272;10.794;2022-09-17T11:44:14;95450.59;;;12.06;75.04
10978;BME280;5542;48.272;10.794;2022-09-17T11:46:49;95444.94;;;12.19;72.75
10978;BME280;5542;48.272;10.794;2022-09-17T11:49:33;95443.28;;;12.13;73.71
10978;BME280;5542;48.272;10.794;2022-09-17T11:52:06;95439.19;;;12.22;73.05
10978;BME280;5542;48.272;10.794;2022-09-17T11:54:39;95442.38;;;12.46;70.58
10978;BME280;5542;48.272;10.794;2022-09-17T11:57:11;95433.28;;;12.37;71.56
10978;BME280;5542;48.272;10.794;2022-09-17T11:59:42;95431.19;;;12.61;70.42
10978;BME280;5542;48.272;10.794;2022-09-17T12:02:18;95435.53;;;12.72;71.22
10978;BME280;5542;48.272;10.794;2022-09-17T12:04:54;95435.03;;;12.75;69.97
10978;BME280;5542;48.272;10.794;2022-09-17T12:07:33;95434.19;;;12.70;71.28
10978;BME280;5542;48.272;10.794;2022-09-17T12:10:17;95433.91;;;12.44;71.74
10978;BME280;5542;48.272;10.794;2022-09-17T12:12:51;95428.50;;;12.34;72.24
10978;BME280;5542;48.272;10.794;2022-09-17T12:15:21;95430.59;;;12.32;72.38
10978;BME280;5542;48.272;10.794;2022-09-17T12:17:51;95426.59;;;12.29;72.80
10978;BME280;5542;48.272;10.794;2022-09-17T12:20:24;95424.91;;;12.18;70.43
10978;BME280;5542;48.272;10.794;2022-09-17T12:22:56;95426.72;;;11.96;70.34
10978;BME280;5542;48.272;10.794;2022-09-17T12:25:25;95423.47;;;11.89;72.12
10978;BME280;5542;48.272;10.794;2022-09-17T12:28:00;95435.00;;;12.04;72.40
10978;BME280;5542;48.272;10.794;2022-09-17T12:30:33;95421.03;;;12.04;72.20
10978;BME280;5542;48.272;10.794;2022-09-17T12:33:15;95422.75;;;12.15;74.56
10978;BME280;5542;48.272;10.794;2022-09-17T12:35:54;95416.66;;;12.15;75.38
10978;BME280;5542;48.272;10.794;2022-09-17T12:41:37;95420.78;;;12.27;73.28
10978;BME280;5542;48.272;10.794;2022-09-17T12:44:23;95415.25;;;12.29;73.36
10978;BME280;5542;48.272;10.794;2022-09-17T12:47:04;95412.50;;;12.41;72.92
10978;BME280;5542;48.272;10.794;2022-09-17T12:49:49;95402.66;;;12.31;69.79
10978;BME280;5542;48.272;10.794;2022-09-17T12:52:42;95401.16;;;12.40;71.51
10978;BME280;5542;48.272;10.794;2022-09-17T12:55:32;95400.06;;;12.36;70.19
10978;BME280;5542;48.272;10.794;2022-09-17T12:58:08;95394.69;;;12.53;70.96
10978;BME280;5542;48.272;10.794;2022-09-17T13:00:41;95390.59;;;12.67;67.04
10978;BME280;5542;48.272;10.794;2022-09-17T13:03:14;95381.72;;;12.73;63.02
10978;BME280;5542;48.272;10.794;2022-09-17T13:09:02;95375.53;;;12.63;62.89
10978;BME280;5542;48.272;10.794;2022-09-17T13:11:56;95392.53;;;12.77;60.91
10978;BME280;5542;48.272;10.794;2022-09-17T13:14:38;95379.22;;;12.89;62.45
10978;BME280;5542;48.272;10.794;2022-09-17T13:17:18;95378.91;;;12.85;62.53
10978;BME280;5542;48.272;10.794;2022-09-17T13:19:55;95374.22;;;12.92;60.71
10978;BME280;5542;48.272;10.794;2022-09-17T13:22:28;95373.75;;;13.00;60.45
10978;BME280;5542;48.272;10.794;2022-09-17T13:25:04;95373.97;;;12.94;62.77
10978;BME280;5542;48.272;10.794;2022-09-17T13:27:32;95373.19;;;12.93;63.36
10978;BME280;5542;48.272;10.794;2022-09-17T13:30:01;95371.63;;;12.97;61.50
10978;BME280;5542;48.272;10.794;2022-09-17T13:32:44;95374.09;;;13.09;61.55
10978;BME280;5542;48.272;10.794;2022-09-17T13:35:47;95369.66;;;13.15;59.81
10978;BME280;5542;48.272;10.794;2022-09-17T13:38:19;95369.59;;;13.10;60.96